Huvudsida
METAR-TAF:

METAR-TAF

Flygplatser :

Kruger Mpumalanga International Airport

Kruger nationalpark, Sydafrika

latitud: 25-23-00S, longitud: 31-06-20E, höjd: 862 m

Aktuellt väderrapport

Denna rapport gjordes för 34 minuter sedan, klockan 11:00 UTC
Vind 10 kt från ost/nordost
Temperatur 24°C
Fuktighet 38%
Tryck 1020 hPa

METAR: FAKN 191100Z AUTO 07010KT //// // ////// 24/09 Q1020

Tid: 13:34 (11:34 UTC)

Väderprognos

Denna rapport gjordes för 2 timmar och 24 minuter sedan, klockan 09:10 UTC
Prognos gäller från 19 kl. 10 UTC till 19 kl. 18 UTC
Vind 7 kt från ost/nordost
Sikt 10 km eller mer
Inga moln under 1 500 m eller inga cumulonimbus

TAF: FAKN 190910Z 1910/1918 07007KT CAVOK TX25/1913Z TN16/1918Z

Aktuella väderrapporter och prognoser från 4000 flygplatser (METAR- och TAF-rapporter).

De tillgängliga stationerna syns som gula och röda prickar på kartan.

För musen över prickarna för att se namnen på stationerna.

Klicka sedan för att få väderrapporter och prognoser.

För att ändra kartan: Klicka på de gröna knapparna med ett svart kors på för att zooma in; den gröna knappen med ett streck på för att zooma ut; eller på de gröna pilarna för angränsande kartor.


METAR-TAF: